createdAt,value
2018-12-30T00:00:21.654Z,7.93
2018-12-30T00:02:49.983Z,8.57
2018-12-30T00:05:18.860Z,8.07
2018-12-30T00:07:47.153Z,7.20
2018-12-30T00:10:15.713Z,7.47
2018-12-30T00:12:43.999Z,7.87
2018-12-30T00:15:12.651Z,7.27
2018-12-30T00:17:41.191Z,10.43
2018-12-30T00:20:09.749Z,11.90
2018-12-30T00:22:38.036Z,6.93
2018-12-30T00:25:06.704Z,8.43
2018-12-30T00:27:35.010Z,9.50
2018-12-30T00:30:03.288Z,7.93
2018-12-30T00:32:31.572Z,6.80
2018-12-30T00:34:59.850Z,7.30
2018-12-30T00:37:28.135Z,7.93
2018-12-30T00:39:56.421Z,7.90
2018-12-30T00:42:24.715Z,7.63
2018-12-30T00:44:53.393Z,7.43
2018-12-30T00:47:21.668Z,8.87
2018-12-30T00:49:49.942Z,8.87
2018-12-30T00:52:18.223Z,8.67
2018-12-30T00:54:46.510Z,8.33
2018-12-30T00:57:14.791Z,9.97
2018-12-30T00:59:43.822Z,11.60
2018-12-30T01:02:12.104Z,10.20
2018-12-30T01:04:40.396Z,9.73
2018-12-30T01:07:09.356Z,10.37
2018-12-30T01:09:37.938Z,13.27
2018-12-30T01:12:06.215Z,10.43
2018-12-30T01:14:34.517Z,19.97
2018-12-30T01:17:02.797Z,9.97
2018-12-30T01:19:31.107Z,12.10
2018-12-30T01:22:00.271Z,12.07
2018-12-30T01:24:28.570Z,12.17
2018-12-30T01:26:56.884Z,13.50
2018-12-30T01:29:25.176Z,14.27
2018-12-30T01:31:54.450Z,15.17
2018-12-30T01:34:22.742Z,15.83
2018-12-30T01:36:52.882Z,17.03
2018-12-30T01:39:21.114Z,14.53
2018-12-30T01:41:49.478Z,14.07
2018-12-30T01:44:17.762Z,13.40
2018-12-30T01:46:46.116Z,11.57
2018-12-30T01:49:14.414Z,15.37
2018-12-30T01:51:42.760Z,14.50
2018-12-30T01:54:11.119Z,14.70
2018-12-30T01:56:39.427Z,15.73
2018-12-30T01:59:07.702Z,12.73
2018-12-30T02:01:35.999Z,14.87
2018-12-30T02:04:04.276Z,12.93
2018-12-30T02:06:32.597Z,13.50
2018-12-30T02:09:01.049Z,13.43
2018-12-30T02:11:29.664Z,14.07
2018-12-30T02:13:58.249Z,12.90
2018-12-30T02:16:26.554Z,13.57
2018-12-30T02:18:54.855Z,13.27
2018-12-30T02:21:23.521Z,14.23
2018-12-30T02:23:51.828Z,13.40
2018-12-30T02:26:20.114Z,13.70
2018-12-30T02:28:48.453Z,13.10
2018-12-30T02:31:16.779Z,14.40
2018-12-30T02:33:45.818Z,14.27
2018-12-30T02:36:14.150Z,14.53
2018-12-30T02:38:42.485Z,16.10
2018-12-30T02:41:10.781Z,15.93
2018-12-30T02:43:39.102Z,15.37
2018-12-30T02:46:07.394Z,16.03
2018-12-30T02:48:35.689Z,14.30
2018-12-30T02:51:03.982Z,12.63
2018-12-30T02:53:32.284Z,14.07
2018-12-30T02:56:00.598Z,15.70
2018-12-30T02:58:28.923Z,13.83
2018-12-30T03:00:57.207Z,19.93
2018-12-30T03:03:25.488Z,14.90
2018-12-30T03:05:53.798Z,13.20
2018-12-30T03:08:22.401Z,12.53
2018-12-30T03:10:50.698Z,13.27
2018-12-30T03:13:18.984Z,12.23
2018-12-30T03:15:47.277Z,12.47
2018-12-30T03:18:15.560Z,12.00
2018-12-30T03:20:44.186Z,11.53
2018-12-30T03:23:12.474Z,10.83
2018-12-30T03:25:40.764Z,14.20
2018-12-30T03:28:09.307Z,10.70
2018-12-30T03:30:37.742Z,11.43
2018-12-30T03:33:05.976Z,12.67
2018-12-30T03:35:34.273Z,12.53
2018-12-30T03:38:02.559Z,11.03
2018-12-30T03:40:30.925Z,13.23
2018-12-30T03:42:59.211Z,13.10
2018-12-30T03:45:27.857Z,13.10
2018-12-30T03:47:56.142Z,11.93
2018-12-30T03:50:24.718Z,12.80
2018-12-30T03:52:53.008Z,11.80
2018-12-30T03:55:21.377Z,11.90
2018-12-30T03:57:49.686Z,11.53
2018-12-30T04:00:17.966Z,14.00
2018-12-30T04:02:46.257Z,12.90
2018-12-30T04:05:14.593Z,14.20
2018-12-30T04:07:42.882Z,14.53
2018-12-30T04:10:11.172Z,12.80
2018-12-30T04:12:39.460Z,13.00
2018-12-30T04:15:08.092Z,11.57
2018-12-30T04:17:36.695Z,12.50
2018-12-30T04:20:06.104Z,11.77
2018-12-30T04:22:34.372Z,12.33
2018-12-30T04:25:02.650Z,11.23
2018-12-30T04:27:30.945Z,11.90
2018-12-30T04:29:59.231Z,10.87
2018-12-30T04:32:27.529Z,11.13
2018-12-30T04:34:55.815Z,11.20
2018-12-30T04:37:24.427Z,12.40
2018-12-30T04:39:52.703Z,12.63
2018-12-30T04:42:22.032Z,12.60
2018-12-30T04:44:50.410Z,12.87
2018-12-30T04:47:18.680Z,13.70
2018-12-30T04:49:47.396Z,12.03
2018-12-30T04:52:15.695Z,14.93
2018-12-30T04:54:43.982Z,13.37
2018-12-30T04:57:12.277Z,14.00
2018-12-30T04:59:40.558Z,12.73
2018-12-30T05:02:09.155Z,12.33
2018-12-30T05:04:37.454Z,13.63
2018-12-30T05:07:05.744Z,13.27
2018-12-30T05:09:34.026Z,13.93
2018-12-30T05:12:02.317Z,15.33
2018-12-30T05:14:30.627Z,15.70
2018-12-30T05:16:58.917Z,15.93
2018-12-30T05:19:27.291Z,15.00
2018-12-30T05:21:55.661Z,16.37
2018-12-30T05:24:24.251Z,15.80
2018-12-30T05:26:52.528Z,16.17
2018-12-30T05:29:20.824Z,16.07
2018-12-30T05:31:49.110Z,16.23
2018-12-30T05:34:17.414Z,16.20
2018-12-30T05:36:45.692Z,17.43
2018-12-30T05:39:13.995Z,16.07
2018-12-30T05:41:42.284Z,16.67
2018-12-30T05:44:10.583Z,18.77
2018-12-30T05:46:38.945Z,18.67
2018-12-30T05:49:07.247Z,17.20
2018-12-30T05:51:35.534Z,19.17
2018-12-30T05:54:03.844Z,18.87
2018-12-30T05:56:32.135Z,17.80
2018-12-30T05:59:00.435Z,18.37
2018-12-30T06:01:29.004Z,17.77
2018-12-30T06:03:57.286Z,17.43
2018-12-30T06:06:25.588Z,17.73
2018-12-30T06:08:53.867Z,17.43
2018-12-30T06:11:22.243Z,16.57
2018-12-30T06:13:51.070Z,18.03
2018-12-30T06:16:19.355Z,17.77
2018-12-30T06:18:47.991Z,17.00
2018-12-30T06:21:16.295Z,19.47
2018-12-30T06:23:44.656Z,18.97
2018-12-30T06:26:13.104Z,17.20
2018-12-30T06:28:41.389Z,18.80
2018-12-30T06:31:09.691Z,17.60
2018-12-30T06:33:37.981Z,17.13
2018-12-30T06:36:06.283Z,17.93
2018-12-30T06:38:34.568Z,18.30
2018-12-30T06:41:02.903Z,17.30
2018-12-30T06:43:31.189Z,25.53
2018-12-30T06:45:59.673Z,19.63
2018-12-30T06:48:28.294Z,19.77
2018-12-30T06:50:56.881Z,17.90
2018-12-30T06:53:25.182Z,18.43
2018-12-30T06:55:53.466Z,19.10
2018-12-30T06:58:21.771Z,20.27
2018-12-30T07:00:50.050Z,18.47
2018-12-30T07:03:18.344Z,17.60
2018-12-30T07:05:46.655Z,20.20
2018-12-30T07:08:14.955Z,21.07
2018-12-30T07:10:43.503Z,19.03
2018-12-30T07:13:11.881Z,19.07
2018-12-30T07:15:40.161Z,20.93
2018-12-30T07:18:08.463Z,21.37
2018-12-30T07:20:36.759Z,21.43
2018-12-30T07:23:06.052Z,21.87
2018-12-30T07:25:34.920Z,23.97
2018-12-30T07:28:03.232Z,29.63
2018-12-30T07:30:31.517Z,26.30
2018-12-30T07:32:59.814Z,23.83
2018-12-30T07:35:28.100Z,22.73
2018-12-30T07:37:56.393Z,22.03
2018-12-30T07:40:24.676Z,22.20
2018-12-30T07:42:52.961Z,23.70
2018-12-30T07:45:21.268Z,23.90
2018-12-30T07:47:49.564Z,23.73
2018-12-30T07:50:17.853Z,25.67
2018-12-30T07:52:46.465Z,23.60
2018-12-30T07:55:14.770Z,25.77
2018-12-30T07:57:43.061Z,24.93
2018-12-30T08:00:11.357Z,23.13
2018-12-30T08:02:39.636Z,23.73
2018-12-30T08:05:07.938Z,23.63
2018-12-30T08:07:36.235Z,22.93
2018-12-30T08:10:04.867Z,25.83
2018-12-30T08:12:33.150Z,23.27
2018-12-30T08:15:01.473Z,24.10
2018-12-30T08:17:29.751Z,24.17
2018-12-30T08:19:58.049Z,24.10
2018-12-30T08:22:26.328Z,25.50
2018-12-30T08:24:54.643Z,24.43
2018-12-30T08:27:22.926Z,24.80
2018-12-30T08:29:51.235Z,23.63
2018-12-30T08:32:19.519Z,24.73
2018-12-30T08:34:47.814Z,25.67
2018-12-30T08:37:16.113Z,22.67
2018-12-30T08:39:44.402Z,24.77
2018-12-30T08:42:12.700Z,22.50
2018-12-30T08:44:40.983Z,22.63
2018-12-30T08:47:09.394Z,25.77
2018-12-30T08:49:37.961Z,22.53
2018-12-30T08:52:06.262Z,21.27
2018-12-30T08:54:34.555Z,21.73
2018-12-30T08:57:02.848Z,20.60
2018-12-30T08:59:31.133Z,21.83
2018-12-30T09:01:59.442Z,22.17
2018-12-30T09:04:27.729Z,20.37
2018-12-30T09:06:56.026Z,21.10
2018-12-30T09:09:24.309Z,18.80
2018-12-30T09:11:52.613Z,18.67
2018-12-30T09:14:21.224Z,18.33
2018-12-30T09:16:49.539Z,17.37
2018-12-30T09:19:17.820Z,17.33
2018-12-30T09:21:46.117Z,18.07
2018-12-30T09:24:14.419Z,18.70
2018-12-30T09:26:42.708Z,17.33
2018-12-30T09:29:11.109Z,15.40
2018-12-30T09:31:39.383Z,14.87
2018-12-30T09:34:07.993Z,15.50
2018-12-30T09:36:36.225Z,14.83
2018-12-30T09:39:06.668Z,18.17
2018-12-30T09:41:35.247Z,13.90
2018-12-30T09:44:03.911Z,12.53
2018-12-30T09:46:32.198Z,12.80
2018-12-30T09:49:00.499Z,13.37
2018-12-30T09:51:28.780Z,13.87
2018-12-30T09:53:57.075Z,12.73
2018-12-30T09:56:25.376Z,11.40
2018-12-30T09:58:53.776Z,13.43
2018-12-30T10:01:22.058Z,11.57
2018-12-30T10:03:50.410Z,10.77
2018-12-30T10:06:18.720Z,10.83
2018-12-30T10:08:47.290Z,11.20
2018-12-30T10:11:15.881Z,10.47
2018-12-30T10:13:44.161Z,10.80
2018-12-30T10:16:12.484Z,12.43
2018-12-30T10:18:40.775Z,12.10
2018-12-30T10:21:09.070Z,13.07
2018-12-30T10:23:37.365Z,11.57
2018-12-30T10:26:05.662Z,13.30
2018-12-30T10:28:33.937Z,13.80
2018-12-30T10:31:02.524Z,12.80
2018-12-30T10:33:31.078Z,12.87
2018-12-30T10:35:59.381Z,13.27
2018-12-30T10:38:28.046Z,12.53
2018-12-30T10:40:56.337Z,13.47
2018-12-30T10:43:24.623Z,12.27
2018-12-30T10:45:53.187Z,14.10
2018-12-30T10:48:21.477Z,12.97
2018-12-30T10:50:49.773Z,12.20
2018-12-30T10:53:18.047Z,12.27
2018-12-30T10:55:46.359Z,11.63
2018-12-30T10:58:15.025Z,11.77
2018-12-30T11:00:43.432Z,16.90
2018-12-30T11:03:11.725Z,11.57
2018-12-30T11:05:40.034Z,11.83
2018-12-30T11:08:11.162Z,13.20
2018-12-30T11:10:39.940Z,11.97
2018-12-30T11:13:08.260Z,12.17
2018-12-30T11:15:36.544Z,11.07
2018-12-30T11:18:04.833Z,9.73
2018-12-30T11:20:33.128Z,11.83
2018-12-30T11:23:01.435Z,14.40
2018-12-30T11:25:30.033Z,10.97
2018-12-30T11:27:58.343Z,11.17
2018-12-30T11:30:28.917Z,10.47
2018-12-30T11:32:57.222Z,10.53
2018-12-30T11:35:25.514Z,12.53
2018-12-30T11:37:53.810Z,12.47
2018-12-30T11:40:22.092Z,11.87
2018-12-30T11:42:50.412Z,11.30
2018-12-30T11:45:18.717Z,12.13
2018-12-30T11:47:47.011Z,12.53
2018-12-30T11:50:15.384Z,12.47
2018-12-30T11:52:43.667Z,13.70
2018-12-30T11:55:12.022Z,13.03
2018-12-30T11:57:40.359Z,12.03
2018-12-30T12:00:09.889Z,13.40
2018-12-30T12:02:38.474Z,21.67
2018-12-30T12:05:06.838Z,15.23
2018-12-30T12:07:35.137Z,13.37
2018-12-30T12:10:04.621Z,14.33
2018-12-30T12:12:32.926Z,12.83
2018-12-30T12:15:01.210Z,13.90
2018-12-30T12:17:29.514Z,13.03
2018-12-30T12:19:58.155Z,14.10
2018-12-30T12:22:26.439Z,12.67
2018-12-30T12:24:54.816Z,12.63
2018-12-30T12:27:23.373Z,12.00
2018-12-30T12:29:51.673Z,13.07
2018-12-30T12:32:19.964Z,11.83
2018-12-30T12:34:48.259Z,11.83
2018-12-30T12:37:16.540Z,17.30
2018-12-30T12:39:44.840Z,12.60
2018-12-30T12:42:13.136Z,12.90
2018-12-30T12:44:41.439Z,14.83
2018-12-30T12:47:10.025Z,14.37
2018-12-30T12:49:38.317Z,13.20
2018-12-30T12:52:06.596Z,13.90
2018-12-30T12:54:34.904Z,13.27
2018-12-30T12:57:03.526Z,13.20
2018-12-30T12:59:31.850Z,15.37
2018-12-30T13:02:00.134Z,14.33
2018-12-30T13:04:28.419Z,13.67
2018-12-30T13:06:57.847Z,12.10
2018-12-30T13:09:26.165Z,11.80
2018-12-30T13:11:54.459Z,12.97
2018-12-30T13:14:23.080Z,12.07
2018-12-30T13:16:51.390Z,13.40
2018-12-30T13:19:19.690Z,12.17
2018-12-30T13:21:47.994Z,15.60
2018-12-30T13:24:16.285Z,13.07
2018-12-30T13:26:44.586Z,10.63
2018-12-30T13:29:12.894Z,11.77
2018-12-30T13:31:41.187Z,22.83
2018-12-30T13:34:09.583Z,12.93
2018-12-30T13:36:38.177Z,13.03
2018-12-30T13:39:07.311Z,15.10
2018-12-30T13:41:35.634Z,12.13
2018-12-30T13:44:03.920Z,12.17
2018-12-30T13:46:32.302Z,12.93
2018-12-30T13:49:00.902Z,12.07
2018-12-30T13:51:29.206Z,11.23
2018-12-30T13:53:57.505Z,11.27
2018-12-30T13:56:25.784Z,10.03
2018-12-30T13:58:54.481Z,11.53
2018-12-30T14:01:22.771Z,11.03
2018-12-30T14:03:51.378Z,12.03
2018-12-30T14:06:19.659Z,11.33
2018-12-30T14:08:47.968Z,12.27
2018-12-30T14:11:16.258Z,15.00
2018-12-30T14:13:44.564Z,12.00
2018-12-30T14:16:12.852Z,15.53
2018-12-30T14:18:42.155Z,11.23
2018-12-30T14:21:10.444Z,12.77
2018-12-30T14:23:39.012Z,11.97
2018-12-30T14:26:07.613Z,14.00
2018-12-30T14:28:35.909Z,10.33
2018-12-30T14:31:04.195Z,11.93
2018-12-30T14:33:32.495Z,12.77
2018-12-30T14:36:01.115Z,10.73
2018-12-30T14:38:29.470Z,10.40
2018-12-30T14:40:58.029Z,10.17
2018-12-30T14:43:26.675Z,11.27
2018-12-30T14:45:54.984Z,11.47
2018-12-30T14:48:23.275Z,10.83
2018-12-30T14:50:51.641Z,10.87
2018-12-30T14:53:19.931Z,13.23
2018-12-30T14:55:48.590Z,12.43
2018-12-30T14:58:16.896Z,15.13
2018-12-30T15:00:45.587Z,12.83
2018-12-30T15:03:13.875Z,13.23
2018-12-30T15:05:42.500Z,11.73
2018-12-30T15:08:10.791Z,12.60
2018-12-30T15:10:39.170Z,11.53
2018-12-30T15:13:07.468Z,13.10
2018-12-30T15:15:35.798Z,12.17
2018-12-30T15:18:04.084Z,14.67
2018-12-30T15:20:32.406Z,17.73
2018-12-30T15:23:01.035Z,13.50
2018-12-30T15:25:29.329Z,17.33
2018-12-30T15:27:57.916Z,16.93
2018-12-30T15:30:26.222Z,12.27
2018-12-30T15:32:54.760Z,11.87
2018-12-30T15:35:23.441Z,11.00
2018-12-30T15:37:51.741Z,11.63
2018-12-30T15:40:20.297Z,11.57
2018-12-30T15:42:48.594Z,12.37
2018-12-30T15:45:17.169Z,13.07
2018-12-30T15:47:45.477Z,12.90
2018-12-30T15:50:13.755Z,11.07
2018-12-30T15:52:42.402Z,12.37
2018-12-30T15:55:10.988Z,10.97
2018-12-30T15:57:39.696Z,11.80
2018-12-30T16:00:09.311Z,9.73
2018-12-30T16:02:37.603Z,10.73
2018-12-30T16:05:05.978Z,10.63
2018-12-30T16:07:34.290Z,12.97
2018-12-30T16:10:03.209Z,10.43
2018-12-30T16:12:31.506Z,11.33
2018-12-30T16:15:00.177Z,11.27
2018-12-30T16:17:28.536Z,10.87
2018-12-30T16:19:56.832Z,11.13
2018-12-30T16:22:26.434Z,10.57
2018-12-30T16:24:54.796Z,11.63
2018-12-30T16:27:23.083Z,15.70
2018-12-30T16:29:51.592Z,28.40
2018-12-30T16:32:19.876Z,12.13
2018-12-30T16:34:48.169Z,12.70
2018-12-30T16:37:16.483Z,12.03
2018-12-30T16:39:45.086Z,13.60
2018-12-30T16:42:13.373Z,13.93
2018-12-30T16:44:41.800Z,20.67
2018-12-30T16:47:10.423Z,14.30
2018-12-30T16:49:38.714Z,11.90
2018-12-30T16:52:07.284Z,13.67
2018-12-30T16:54:35.574Z,15.00
2018-12-30T16:57:03.878Z,17.77
2018-12-30T16:59:32.165Z,18.53
2018-12-30T17:02:00.796Z,18.60
2018-12-30T17:04:29.117Z,21.07
2018-12-30T17:06:57.398Z,25.33
2018-12-30T17:09:25.790Z,28.67
2018-12-30T17:11:54.006Z,30.53
2018-12-30T17:14:22.587Z,33.43
2018-12-30T17:16:51.170Z,35.77
2018-12-30T17:19:19.730Z,49.10
2018-12-30T17:21:48.038Z,37.20
2018-12-30T17:24:16.742Z,39.10
2018-12-30T17:26:45.028Z,61.13
2018-12-30T17:29:13.418Z,50.33
2018-12-30T17:31:41.710Z,43.57
2018-12-30T17:34:10.002Z,47.43
2018-12-30T17:36:38.310Z,45.97
2018-12-30T17:39:07.119Z,47.53
2018-12-30T17:41:35.405Z,45.13
2018-12-30T17:44:03.717Z,48.60
2018-12-30T17:46:32.000Z,44.97
2018-12-30T17:49:00.613Z,46.57
2018-12-30T17:51:28.893Z,46.50
2018-12-30T17:53:57.468Z,51.23
2018-12-30T17:56:26.074Z,53.03
2018-12-30T17:58:54.442Z,52.40
2018-12-30T18:01:22.735Z,54.27
2018-12-30T18:03:51.031Z,51.47
2018-12-30T18:06:19.673Z,51.87
2018-12-30T18:08:47.980Z,53.67
2018-12-30T18:11:16.534Z,50.47
2018-12-30T18:13:44.835Z,52.37
2018-12-30T18:16:13.498Z,56.00
2018-12-30T18:18:41.788Z,49.40
2018-12-30T18:21:10.366Z,49.47
2018-12-30T18:23:38.955Z,48.20
2018-12-30T18:26:07.259Z,49.20
2018-12-30T18:28:35.925Z,51.17
2018-12-30T18:31:04.265Z,48.03
2018-12-30T18:33:32.865Z,47.47
2018-12-30T18:36:03.494Z,50.80
2018-12-30T18:38:31.821Z,45.53
2018-12-30T18:41:00.132Z,48.63
2018-12-30T18:43:28.417Z,49.73
2018-12-30T18:45:56.801Z,50.50
2018-12-30T18:48:25.110Z,48.23
2018-12-30T18:50:53.776Z,51.13
2018-12-30T18:53:22.358Z,51.40
2018-12-30T18:55:50.938Z,53.07
2018-12-30T18:58:19.522Z,49.63
2018-12-30T19:00:47.827Z,54.37
2018-12-30T19:03:16.504Z,51.87
2018-12-30T19:05:45.070Z,55.17
2018-12-30T19:08:14.242Z,52.37
2018-12-30T19:10:42.874Z,53.20
2018-12-30T19:13:11.453Z,52.97
2018-12-30T19:15:39.759Z,55.17
2018-12-30T19:18:08.075Z,50.77
2018-12-30T19:20:36.375Z,51.53
2018-12-30T19:23:04.665Z,53.43
2018-12-30T19:25:33.327Z,49.83
2018-12-30T19:28:01.613Z,51.73
2018-12-30T19:30:29.908Z,55.03
2018-12-30T19:32:58.572Z,53.17
2018-12-30T19:35:26.859Z,54.17
2018-12-30T19:37:55.165Z,53.27
2018-12-30T19:40:25.106Z,52.47
2018-12-30T19:42:53.405Z,52.33
2018-12-30T19:45:21.995Z,50.30
2018-12-30T19:47:50.298Z,47.40
2018-12-30T19:50:18.966Z,50.97
2018-12-30T19:52:47.543Z,54.33
2018-12-30T19:55:15.837Z,56.53
2018-12-30T19:57:45.772Z,54.43
2018-12-30T20:00:14.321Z,58.60
2018-12-30T20:02:42.619Z,55.83
2018-12-30T20:05:13.559Z,51.50
2018-12-30T20:07:41.841Z,53.67
2018-12-30T20:10:10.205Z,56.23
2018-12-30T20:12:38.499Z,56.33
2018-12-30T20:15:07.543Z,54.43
2018-12-30T20:17:35.828Z,55.97
2018-12-30T20:20:05.345Z,59.20
2018-12-30T20:22:33.625Z,53.80
2018-12-30T20:25:01.921Z,56.47
2018-12-30T20:27:30.242Z,57.07
2018-12-30T20:29:58.872Z,59.37
2018-12-30T20:32:27.164Z,62.50
2018-12-30T20:34:55.459Z,63.63
2018-12-30T20:37:23.810Z,63.87
2018-12-30T20:39:52.372Z,59.03
2018-12-30T20:42:20.957Z,60.30
2018-12-30T20:44:49.249Z,59.40
2018-12-30T20:47:17.562Z,60.63
2018-12-30T20:49:46.221Z,60.90
2018-12-30T20:52:14.523Z,61.97
2018-12-30T20:54:42.808Z,62.83
2018-12-30T20:57:11.111Z,63.33
2018-12-30T20:59:39.392Z,60.80
2018-12-30T21:02:07.772Z,63.60
2018-12-30T21:04:38.339Z,68.67
2018-12-30T21:07:07.007Z,67.30
2018-12-30T21:09:35.291Z,69.57
2018-12-30T21:12:03.864Z,65.20
2018-12-30T21:14:32.151Z,69.37
2018-12-30T21:17:00.737Z,68.07
2018-12-30T21:19:29.539Z,70.30
2018-12-30T21:21:58.093Z,67.53
2018-12-30T21:24:27.718Z,71.30
2018-12-30T21:26:56.973Z,67.77
2018-12-30T21:29:27.542Z,67.30
2018-12-30T21:31:57.154Z,66.67
2018-12-30T21:34:25.444Z,69.47
2018-12-30T21:36:54.149Z,70.50
2018-12-30T21:39:22.425Z,72.27
2018-12-30T21:41:50.718Z,66.60
2018-12-30T21:44:19.039Z,71.37
2018-12-30T21:46:47.323Z,69.13
2018-12-30T21:49:15.623Z,75.40
2018-12-30T21:51:43.927Z,73.00
2018-12-30T21:54:12.225Z,70.53
2018-12-30T21:56:40.514Z,68.87
2018-12-30T21:59:08.815Z,71.13
2018-12-30T22:01:37.105Z,74.63
2018-12-30T22:04:05.416Z,72.27
2018-12-30T22:06:33.719Z,72.53
2018-12-30T22:09:02.021Z,74.93
2018-12-30T22:11:30.284Z,78.97
2018-12-30T22:13:58.589Z,74.70
2018-12-30T22:16:26.886Z,76.80
2018-12-30T22:18:55.222Z,79.63
2018-12-30T22:21:23.496Z,77.33
2018-12-30T22:23:52.021Z,78.77
2018-12-30T22:26:21.175Z,78.80
2018-12-30T22:28:49.445Z,82.47
2018-12-30T22:31:17.777Z,76.03
2018-12-30T22:33:46.059Z,75.43
2018-12-30T22:36:14.353Z,80.07
2018-12-30T22:38:44.021Z,80.67
2018-12-30T22:41:12.298Z,81.67
2018-12-30T22:43:40.596Z,78.37
2018-12-30T22:46:09.233Z,74.83
2018-12-30T22:48:37.524Z,73.67
2018-12-30T22:51:05.850Z,80.67
2018-12-30T22:53:34.202Z,71.80
2018-12-30T22:56:02.663Z,75.93
2018-12-30T22:58:31.207Z,77.17
2018-12-30T23:01:01.538Z,76.03
2018-12-30T23:03:29.824Z,77.47
2018-12-30T23:05:58.116Z,80.00
2018-12-30T23:08:26.401Z,83.67
2018-12-30T23:10:54.691Z,80.10
2018-12-30T23:13:23.056Z,82.30
2018-12-30T23:15:51.728Z,80.27
2018-12-30T23:18:20.012Z,80.93
2018-12-30T23:20:48.287Z,86.53
2018-12-30T23:23:16.600Z,81.87
2018-12-30T23:25:45.866Z,81.83
2018-12-30T23:28:14.254Z,80.43
2018-12-30T23:30:42.553Z,90.90
2018-12-30T23:33:10.849Z,88.33
2018-12-30T23:35:39.133Z,84.07
2018-12-30T23:38:07.436Z,91.93
2018-12-30T23:40:35.720Z,90.20
2018-12-30T23:43:04.085Z,87.40
2018-12-30T23:45:32.772Z,85.57
2018-12-30T23:48:01.099Z,85.63
2018-12-30T23:50:29.378Z,88.13
2018-12-30T23:52:57.920Z,79.67
2018-12-30T23:55:26.492Z,85.40
2018-12-30T23:57:55.073Z,82.17
